Latest Coastal Weather Observations for Point Perpendicular

IDN60701

Issued at 12:21 am EST Friday 31 July 2015 (issued every 10 minutes, with the page automatically refreshed every 10 minutes)

About coastal observations | Map of coastal stations | Coastal observations for NSW | Marine services | Other Formats
Station Details ID: 068151 Name: POINT PERPENDICULAR AWS Lat: -35.09 Lon: 150.80 Height: 85.0 m
Data from the previous 72 hours. | See also: Recent months at Point Perpendicular
Date/Time
EST
Temp

°C
Wind Pressure Rain
since 9am
mm
Weather Cloud Vis
km
Sea
Height
m
Swell
Dir
 
Speed
knots
Gust
knots
hPa Trend Height
m
Period
s
Dir
31/12:00am 13.7 WNW 13 19 1017.0 - 0.0 - - - - - - -
 
Date/Time
EST
Temp

°C
Wind Pressure Rain
since 9am
mm
Weather Cloud Vis
km
Sea
Height
m
Swell
Dir
 
Speed
knots
Gust
knots
hPa Trend Height
m
Period
s
Dir
30/11:30pm 13.6 WNW 12 19 1017.7 - 0.0 - - - - - - -
30/11:00pm 13.7 WNW 7 9 1018.0 - 0.0 - - - - - - -
30/10:30pm 13.8 WNW 6 9 1017.8 - 0.0 - - - - - - -
30/10:00pm 13.8 NW 7 12 1017.5 - 0.0 - - - - - - -
30/09:30pm 13.9 NW 8 14 1017.5 - 0.0 - - - - - - -
30/09:00pm 13.8 NW 11 15 1016.8 - 0.0 - - - - - - -
30/08:30pm 13.8 NNW 8 15 1016.3 - 0.0 - - - - - - -
30/08:00pm 14.1 NW 13 21 1016.8 - 0.0 - - - - - - -
30/07:30pm 14.2 WNW 9 15 1017.2 - 0.0 - - - - - - -
30/07:00pm 14.3 NW 9 14 1017.3 - 0.0 - - - - - - -
30/06:30pm 14.5 NW 11 17 1017.7 - 0.0 - - - - - - -
30/06:00pm 14.4 NW 14 21 1017.4 - 0.0 - - - - - - -
30/05:30pm 14.3 NW 8 15 1017.5 - 0.0 - - - - - - -
30/05:00pm 14.8 NNW 7 12 1017.6 - 0.0 - - - - - - -
30/04:30pm 15.1 NW 10 15 1017.5 - 0.0 - - - - - - -
30/04:00pm 15.9 NNW 9 14 1017.4 - 0.0 - - - - - - -
30/03:30pm 16.4 NW 10 15 1017.9 - 0.0 - - - - - - -
30/03:00pm 17.2 NW 9 14 1018.3 - 0.0 - - - - - - -
30/02:30pm 17.4 NW 11 15 1018.7 - 0.0 - - - - - - -
30/02:00pm 18.0 NW 10 16 1019.0 - 0.0 - - - - - - -
30/01:30pm 17.5 NW 10 17 1019.6 - 0.0 - - - - - - -
30/01:00pm 17.0 NNW 12 17 1020.0 - 0.0 - - - - - - -
30/12:30pm 16.5 NNW 14 19 1020.5 - 0.0 - - - - - - -
30/12:00pm 16.1 NNW 13 21 1021.1 - 0.0 - - - - - - -
30/11:30am 15.3 NNW 13 19 1021.9 - 0.0 - - - - - - -
30/11:00am 14.8 NNW 12 18 1022.7 - 0.0 - - - - - - -
30/10:30am 14.4 NNW 12 21 1023.6 - 0.0 - - - - - - -
30/10:00am 13.2 NNW 10 15 1024.3 - 0.0 - - - - - - -
30/09:30am 13.6 NNW 9 14 1024.7 - 0.0 - - - - - - -
30/09:00am 12.7 N 7 12 1025.2 - 0.0 - - - - - - -
30/08:30am 11.3 N 6 7 1025.1 - 0.0 - - - - - - -
30/08:00am 10.3 NNW 5 6 1025.3 - 0.0 - - - - - - -
30/07:30am 9.7 NNW 6 8 1025.4 - 0.0 - - - - - - -
30/07:00am 9.1 NNW 6 8 1025.3 - 0.0 - - - - - - -
30/06:30am 9.1 NNW 8 9 1025.1 - 0.0 - - - - - - -
30/06:00am 8.6 N 7 8 1025.1 - 0.0 - - - - - - -
30/05:30am 8.7 NNW 6 7 1025.3 - 0.0 - - - - - - -
30/05:00am 8.8 NNW 6 7 1025.5 - 0.0 - - - - - - -
30/04:30am 9.1 NNW 6 8 1025.7 - 0.0 - - - - - - -
30/04:00am 9.4 NW 5 7 1026.1 - 0.0 - - - - - - -
30/03:30am 9.6 NW 6 7 1026.0 - 0.0 - - - - - - -
30/03:00am 9.7 NW 6 8 1026.3 - 0.0 - - - - - - -
30/02:30am 9.7 NW 6 8 1026.7 - 0.0 - - - - - - -
30/02:00am 9.8 WNW 6 7 1027.1 - 0.0 - - - - - - -
30/01:30am 9.9 NNW 5 6 1027.2 - 0.0 - - - - - - -
30/01:00am 9.6 NW 5 7 1027.9 - 0.0 - - - - - - -
30/12:30am 9.6 NW 5 7 1028.4 - 0.0 - - - - - - -
30/12:00am 9.8 WNW 5 6 1028.7 - 0.0 - - - - - - -
 
Date/Time
EST
Temp

°C
Wind Pressure Rain
since 9am
mm
Weather Cloud Vis
km
Sea
Height
m
Swell
Dir
 
Speed
knots
Gust
knots
hPa Trend Height
m
Period
s
Dir
29/11:30pm 10.6 NNW 5 6 1028.8 - 0.0 - - - - - - -
29/11:00pm 11.0 N 6 7 1029.0 - 0.0 - - - - - - -
29/10:30pm 10.8 N 5 6 1029.1 - 0.0 - - - - - - -
29/10:00pm 11.4 N 7 9 1029.4 - 0.0 - - - - - - -
29/09:30pm 10.7 N 6 8 1029.6 - 0.0 - - - - - - -
29/09:00pm 11.5 N 6 7 1030.3 - 0.0 - - - - - - -
29/08:30pm 11.5 N 8 11 1030.0 - 0.0 - - - - - - -
29/08:00pm 11.5 NNE 9 13 1029.6 - 0.0 - - - - - - -
29/07:30pm 11.8 NNE 10 13 1029.5 - 0.0 - - - - - - -
29/07:00pm 11.7 NNE 7 9 1030.1 - 0.0 - - - - - - -
29/06:30pm 11.7 NNE 8 12 1029.9 - 0.0 - - - - - - -
29/06:00pm 11.8 NE 7 11 1029.7 - 0.0 - - - - - - -
29/05:30pm 12.3 NE 7 9 1029.4 - 0.0 - - - - - - -
29/05:00pm 12.7 NE 6 8 1029.3 - 0.0 - - - - - - -
29/04:30pm 12.9 NE 6 8 1029.6 - 0.0 - - - - - - -
29/04:00pm 13.8 ENE 6 9 1029.5 - 0.0 - - - - - - -
29/03:30pm 14.1 ENE 7 11 1029.7 - 0.0 - - - - - - -
29/03:00pm 14.4 ENE 7 11 1029.7 - 0.0 - - - - - - -
29/02:30pm 14.4 E 5 9 1030.4 - 0.0 - - - - - - -
29/02:00pm 14.7 ESE 5 8 1030.7 - 0.0 - - - - - - -
29/01:30pm 14.7 ESE 4 6 1031.3 - 0.0 - - - - - - -
29/01:00pm 14.3 ESE 4 7 1031.8 - 0.0 - - - - - - -
29/12:30pm 14.2 SE 5 8 1032.3 - 0.0 - - - - - - -
29/12:00pm 13.7 SE 5 8 1033.0 - 0.0 - - - - - - -
29/11:30am 13.9 SSW 3 6 1033.6 - 0.0 - - - - - - -
29/11:00am 13.5 WSW 3 6 1034.0 - 0.0 - - - - - - -
29/10:30am 12.7 WNW 5 7 1034.6 - 0.0 - - - - - - -
29/10:00am 12.4 WNW 4 6 1034.7 - 0.0 - - - - - - -
29/09:30am 11.8 WNW 4 6 1034.8 - 0.0 - - - - - - -
29/09:00am 10.6 WNW 4 6 1034.8 - 0.0 - - - - - - -
29/08:30am 9.8 WNW 4 5 1034.7 - 0.0 - - - - - - -
29/08:00am 9.0 NW 5 6 1034.7 - 0.0 - - - - - - -
29/07:30am 8.6 WNW 5 6 1034.3 - 0.0 - - - - - - -
29/07:00am 8.0 NW 5 6 1034.0 - 0.0 - - - - - - -
29/06:30am 7.6 NW 5 6 1033.9 - 0.0 - - - - - - -
29/06:00am 7.6 NW 5 7 1033.6 - 0.0 - - - - - - -
29/05:30am 8.0 NW 6 8 1033.4 - 0.0 - - - - - - -
29/05:00am 8.7 NW 6 7 1033.2 - 0.0 - - - - - - -
29/04:30am 10.2 WNW 5 6 1033.1 - 0.0 - - - - - - -
29/04:00am 11.8 W 4 5 1032.9 - 0.0 - - - - - - -
29/03:30am 11.8 WNW 5 6 1032.9 - 0.0 - - - - - - -
29/03:00am 12.1 SW 4 5 1032.9 - 0.0 - - - - - - -
29/02:30am 13.0 SW 4 5 1033.1 - 0.0 - - - - - - -
29/02:00am 12.3 SW 4 6 1033.2 - 0.0 - - - - - - -
29/01:30am 12.6 W 3 4 1033.2 - 0.0 - - - - - - -
29/01:00am 12.2 WNW 4 6 1033.2 - 0.0 - - - - - - -
29/12:30am 12.4 WNW 4 5 1033.1 - 0.0 - - - - - - -
29/12:00am 10.6 N 3 4 1033.2 - 0.0 - - - - - - -
 
Date/Time
EST
Temp

°C
Wind Pressure Rain
since 9am
mm
Weather Cloud Vis
km
Sea
Height
m
Swell
Dir
 
Speed
knots
Gust
knots
hPa Trend Height
m
Period
s
Dir
28/11:30pm 11.2 N 3 4 1033.2 - 0.0 - - - - - - -
28/11:00pm 11.7 WSW 3 4 1033.1 - 0.0 - - - - - - -
28/10:30pm 12.3 W 4 5 1033.4 - 0.0 - - - - - - -
28/10:00pm 11.9 WNW 5 6 1033.2 - 0.0 - - - - - - -
28/09:30pm 12.6 WSW 3 4 1033.3 - 0.0 - - - - - - -
28/09:00pm 12.8 NW 4 5 1033.2 - 0.0 - - - - - - -
28/08:30pm 13.0 SW 2 4 1033.1 - 0.0 - - - - - - -
28/08:00pm 12.8 WSW 3 4 1033.0 - 0.0 - - - - - - -
28/07:30pm 12.6 SSW 3 5 1032.8 - 0.0 - - - - - - -
28/07:00pm 12.8 SSW 3 4 1032.7 - 0.0 - - - - - - -
28/06:30pm 13.3 SSW 3 4 1032.3 - 0.0 - - - - - - -
28/06:00pm 13.1 SE 4 5 1031.8 - 0.0 - - - - - - -
28/05:30pm 13.1 SE 4 6 1031.3 - 0.0 - - - - - - -
28/05:00pm 13.2 SE 5 7 1030.8 - 0.0 - - - - - - -
28/04:30pm 13.5 SE 5 7 1030.7 - 0.0 - - - - - - -
28/04:00pm 14.4 SE 5 6 1030.8 - 0.0 - - - - - - -
28/03:30pm 14.6 SSE 5 8 1030.6 - 0.0 - - - - - - -
28/03:00pm 14.7 S 6 9 1030.7 - 0.0 - - - - - - -
28/02:30pm 14.9 S 6 9 1030.6 - 0.0 - - - - - - -
28/02:00pm 14.5 S 8 13 1030.6 - 0.0 - - - - - - -
28/01:30pm 14.2 S 10 14 1030.5 - 0.0 - - - - - - -
28/01:00pm 14.1 SSW 10 14 1030.7 - 0.0 - - - - - - -
28/12:30pm 13.8 SW 8 14 1031.0 - 0.0 - - - - - - -
28/12:00pm 13.8 SW 9 14 1031.5 - 0.0 - - - - - - -
28/11:30am 13.7 WSW 8 12 1032.0 - 0.0 - - - - - - -
28/11:00am 13.3 WSW 7 12 1032.2 - 0.0 - - - - - - -
28/10:30am 12.8 W 7 11 1032.4 - 0.0 - - - - - - -
28/10:00am 12.0 WNW 7 11 1032.3 - 0.0 - - - - - - -
28/09:30am 10.8 WNW 8 11 1032.2 - 0.0 - - - - - - -
28/09:00am 10.1 WNW 7 9 1032.0 - 0.0 - - - - - - -
28/08:30am 9.6 WNW 8 11 1031.8 - 0.0 - - - - - - -
28/08:00am 8.8 WNW 6 8 1031.3 - 0.0 - - - - - - -
28/07:30am 8.0 WNW 7 11 1030.8 - 0.0 - - - - - - -
28/07:00am 7.9 WNW 7 11 1030.4 - 0.0 - - - - - - -
28/06:30am 8.0 W 7 11 1030.1 - 0.0 - - - - - - -
28/06:00am 7.9 W 6 11 1029.8 - 0.0 - - - - - - -
28/05:30am 8.0 W 7 9 1029.6 - 0.0 - - - - - - -
28/05:00am 8.3 WNW 7 8 1029.1 - 0.0 - - - - - - -
28/04:30am 8.5 WNW 7 12 1029.0 - 0.0 - - - - - - -
28/04:00am 8.3 WNW 7 11 1028.7 - 0.0 - - - - - - -
28/03:30am 8.5 WNW 7 9 1028.6 - 0.0 - - - - - - -
28/03:00am 8.4 W 7 9 1028.4 - 0.0 - - - - - - -
28/02:30am 8.3 WNW 7 9 1028.6 - 0.0 - - - - - - -
28/02:00am 8.6 WNW 7 11 1028.4 - 0.0 - - - - - - -
28/01:30am 9.0 NW 6 8 1028.3 - 0.0 - - - - - - -
28/01:00am 9.0 WNW 6 8 1028.1 - 0.0 - - - - - - -
28/12:30am 8.8 WNW 7 11 1028.0 - 0.0 - - - - - - -

Other Formats:

Comma delimited format used in spreadsheet applications
http://www.bom.gov.au/fwo/IDN60701/IDN60701.95940.axf

JavaScript Object Notation format (JSON) in row-major order
http://www.bom.gov.au/fwo/IDN60701/IDN60701.95940.json